Aeroporto :
LOGIN :

Iscrizione | Disclaimer

   EN    FR    IT 

 










Sommario :    VFR   VFR Marginale   IFR   IFR Intensivo   IFR Molto Intensivo
Visibilità : 
Base nubi : 
>= 8 km
>= 3000ft
5 / 8 km
1000 / 3000 ft
1500m / 5 km
500 / 1000 ft
800 / 1500m
200 / 500 ft
< 800m
< 200 ft
Simboli :   Temporali  Nebbia  Neve Forte  Precipitazioni Forti  Vento > 20 kt
SIGMETs :   Varie  Temporali  Ghiacco  Turbolenza  Onda orograficha  Ceneri Vulcaniche







- Altitudine del aeroporto : 2077 ft
- Codice IATA : FMM


EDJA - Memmingen

ULTIMO METAR :
  • 181550Z 23008KT CAVOK 04/01 Q1019

METARs OBSOLETI :
  • 181520Z 23011KT 9999 FEW037 SCT056 03/01 Q1019
  • 181450Z 26012KT 9999 -SN BKN010 BKN036 02/00 Q1019
  • 181420Z 30013KT 9999 -SN BKN014 BKN028 01/00 Q1019 RESN
  • 181350Z 25010KT 9999 FEW006 SCT023 BKN040 04/M01 Q1019
  • 181320Z 24015G26KT 9999 -SHGS FEW021 BKN025 BKN056 03/M02 Q1019

TAF TAF EDJA
Valido dal 18 a 15 ore il 19 a 00 ore UTC


181400Z 1815/1824 28012KT 9999 SCT025
TEMPO 1815/1820 3500 -SHSN BKN012CB
BECMG 1816/1819 20006KT
Nessun NOTAM noto per questo aeroporto.



MetMap, La meteo Aeronautica in un colpo d'occhio ! - Copyright ORBIFLY Dicembre 2007 - Disclaimer

ORBIFLY MET'MAP TEAM :

Programmazione e sviluppo : Alexandra Zaïnal
Concezione e sviluppo : Baudouin d'Aumeries
Co-Programmazione e sviluppo : Marc-Olivier Méhu
Supporto tecnico e logistico : Manuel Goepfert
Aiuto per la traduzione : Arnaldo La Scala

Contatto : metmap@orbifly.com




FONTI E CREDITI :

   NOAA